Columbia Heights, Minnesota
Current Conditions -  °F | °C
As of 9:53 AM on Saturday 25 Oct 2014 (Local Time) from KMIC Reporting Station
Clear Clear  
Wind Chill: 54°   Ceiling: Unl
Heat Index: 54°   Visibility: 10mi
Dew Point: 34°   Wind: 12mph
Humidity: 47%   Direction: 300°WNW
Pressure: 30.04"   Gusts: NA
Location:  45.04°N, 93.26°W
Report Text: KMIC 251453Z 30010KT 10SM CLR 12/01 A3004 RMK AO2 SLP173 T01220011 53018
Loading
Personal Weather Stations






























Interactive Weather Map
Tropical Storm Tracking
New forecast layout! Learn more

10-Day Weather Forecast

Advertisements
Track Severe Weather on mobile